Startpagina
METAR-TAF:

METAR-TAF

Vliegvelden :

Vliegbasis Florennes

Florennes, België

breedte: 50-14N, lengte: 004-39E, hoogte: 279 m

Actueel weer

Dit bericht is 26 minuten geleden gemaakt, om 03:25 UTC
Temperatuur 16°C
Vochtigheid 94%
Druk 1021 hPa
Zicht: 7000 m

METAR: EBFS 210325Z AUTO //////KT 7000 FEW016/// BKN220/// 16/15 Q1021 WHT

Tijdstip: 05:51 (03:51 UTC)

Verwachting

Dit bericht is 12 uur en het 10 minuten geleden gemaakt, om 15:41 UTC
Verwachting geldig van 20 om 19 UTC tot 21 om 07 UTC
Wind 5 kt uit het noordnoordwesten
Zicht 10 km of meer
Weinig wolken op 2500 ft
Gebroken wolken op 4000 ft
Wijzigt naar
van 20 om 24 UTC tot 21 om 03 UTC
Wind 3 kt uit variabele richting
Gebroken wolken op 4000 ft
Kans 30% :
Tijdelijke
van 21 om 03 UTC tot 21 om 07 UTC
Zicht: 5000 m
nevel

TAF: EBFS 201541Z 2019/2107 33005KT 9999 FEW025 BKN040 BECMG 2024/2103 VRB03KT BKN040 PROB30 TEMPO 2103/2107 5000 BR

Waarnemingen en weersverwachtingen van meer dan 4000 vliegvelden (METAR en TAF).

De beschikbare stations zijn de gele en rode punten op de kaart.

Ga met uw muis naar het station om de naam te zien.

Klik dan om waarnemingen en weersverwachtingen te zien.

kaart wijzigen: klik op de groene knoppen met een zwart kruis om in te zoomen, op de groene knop met een streepje om uit te zoomen of op de groene pijlen voor aangrenzende kaarten.


METAR-TAF: